createdAt,value
2022-11-26T00:00:53.473Z,27.60
2022-11-26T00:03:20.530Z,29.52
2022-11-26T00:05:50.809Z,20.30
2022-11-26T00:08:25.068Z,24.60
2022-11-26T00:10:53.440Z,27.83
2022-11-26T00:13:24.176Z,25.73
2022-11-26T00:15:51.783Z,27.20
2022-11-26T00:18:20.105Z,26.63
2022-11-26T00:20:56.871Z,32.25
2022-11-26T00:23:25.876Z,27.35
2022-11-26T00:25:58.994Z,23.05
2022-11-26T00:28:36.155Z,29.65
2022-11-26T00:31:12.784Z,30.80
2022-11-26T00:33:39.593Z,28.13
2022-11-26T00:36:22.230Z,26.00
2022-11-26T00:39:17.592Z,27.27
2022-11-26T00:41:48.703Z,27.55
2022-11-26T00:44:21.246Z,29.65
2022-11-26T00:46:49.167Z,25.67
2022-11-26T00:49:16.974Z,21.90
2022-11-26T00:51:44.191Z,30.27
2022-11-26T00:54:14.586Z,26.42
2022-11-26T00:56:41.616Z,21.98
2022-11-26T00:59:14.639Z,24.60
2022-11-26T01:01:41.416Z,25.02
2022-11-26T01:04:08.139Z,26.15
2022-11-26T01:06:38.442Z,29.90
2022-11-26T01:09:07.227Z,22.20
2022-11-26T01:11:34.029Z,29.67
2022-11-26T01:14:00.809Z,22.08
2022-11-26T01:16:30.499Z,21.80
2022-11-26T01:18:59.175Z,30.00
2022-11-26T01:21:27.409Z,24.83
2022-11-26T01:23:54.222Z,22.33
2022-11-26T01:26:30.366Z,23.73
2022-11-26T01:28:57.069Z,27.88
2022-11-26T01:31:29.640Z,27.60
2022-11-26T01:33:57.091Z,24.15
2022-11-26T01:36:36.416Z,27.10
2022-11-26T01:39:07.685Z,31.13
2022-11-26T01:42:15.700Z,25.52
2022-11-26T01:44:43.273Z,22.92
2022-11-26T01:47:21.688Z,25.35
2022-11-26T01:50:26.252Z,24.27
2022-11-26T01:52:53.424Z,24.23
2022-11-26T01:55:20.212Z,25.85
2022-11-26T01:57:47.082Z,27.35
2022-11-26T02:00:14.414Z,26.35
2022-11-26T02:02:41.606Z,25.17
2022-11-26T02:05:31.483Z,27.48
2022-11-26T02:07:58.342Z,25.00
2022-11-26T02:10:25.125Z,18.70
2022-11-26T02:12:52.225Z,18.58
2022-11-26T02:15:19.027Z,19.92
2022-11-26T02:17:54.419Z,19.00
2022-11-26T02:20:52.102Z,26.27
2022-11-26T02:24:00.798Z,29.85
2022-11-26T02:27:11.757Z,24.23
2022-11-26T02:29:53.396Z,32.42
2022-11-26T02:32:32.895Z,25.40
2022-11-26T02:35:12.587Z,21.38
2022-11-26T02:37:54.483Z,21.70
2022-11-26T02:40:22.669Z,20.48
2022-11-26T02:42:49.445Z,21.38
2022-11-26T02:45:25.238Z,22.30
2022-11-26T02:47:54.623Z,22.40
2022-11-26T02:50:42.880Z,29.95
2022-11-26T02:53:10.613Z,22.10
2022-11-26T02:55:41.866Z,26.60
2022-11-26T02:58:09.501Z,25.27
2022-11-26T03:00:40.936Z,21.75
2022-11-26T03:03:23.737Z,23.77
2022-11-26T03:05:57.555Z,24.45
2022-11-26T03:08:25.929Z,22.90
2022-11-26T03:10:53.022Z,25.55
2022-11-26T03:13:19.719Z,24.42
2022-11-26T03:15:47.104Z,22.95
2022-11-26T03:18:13.797Z,20.67
2022-11-26T03:20:40.509Z,22.92
2022-11-26T03:23:07.480Z,20.98
2022-11-26T03:25:35.053Z,21.45
2022-11-26T03:28:02.119Z,19.98
2022-11-26T03:30:28.863Z,27.50
2022-11-26T03:32:56.709Z,25.98
2022-11-26T03:35:23.670Z,22.30
2022-11-26T03:37:50.897Z,19.80
2022-11-26T03:40:17.794Z,22.10
2022-11-26T03:42:45.175Z,18.15
2022-11-26T03:45:13.634Z,34.83
2022-11-26T03:47:40.467Z,16.60
2022-11-26T03:50:08.117Z,28.65
2022-11-26T03:52:34.824Z,21.40
2022-11-26T03:55:01.521Z,22.55
2022-11-26T03:57:28.513Z,18.02
2022-11-26T03:59:55.289Z,29.30
2022-11-26T04:02:22.075Z,23.00
2022-11-26T04:04:48.860Z,24.63
2022-11-26T04:07:15.650Z,30.02
2022-11-26T04:09:42.523Z,30.67
2022-11-26T04:12:09.310Z,27.55
2022-11-26T04:14:36.215Z,30.40
2022-11-26T04:17:03.283Z,26.48
2022-11-26T04:19:30.537Z,31.27
2022-11-26T04:21:57.405Z,25.60
2022-11-26T04:24:24.210Z,25.40
2022-11-26T04:26:50.980Z,31.88
2022-11-26T04:29:17.775Z,32.97
2022-11-26T04:31:44.522Z,29.67
2022-11-26T04:34:11.353Z,27.77
2022-11-26T04:36:39.545Z,29.88
2022-11-26T04:39:06.512Z,34.47
2022-11-26T04:41:33.232Z,27.55
2022-11-26T04:43:59.952Z,37.63
2022-11-26T04:46:26.613Z,28.85
2022-11-26T04:48:53.276Z,31.55
2022-11-26T04:51:19.954Z,28.13
2022-11-26T04:53:46.734Z,28.35
2022-11-26T04:56:13.402Z,27.58
2022-11-26T04:58:40.088Z,28.10
2022-11-26T05:01:07.087Z,37.92
2022-11-26T05:03:39.308Z,27.80
2022-11-26T05:06:06.331Z,34.00
2022-11-26T05:08:33.103Z,30.02
2022-11-26T05:11:03.287Z,28.38
2022-11-26T05:13:29.949Z,31.48
2022-11-26T05:15:56.647Z,31.70
2022-11-26T05:18:23.334Z,26.05
2022-11-26T05:20:50.014Z,31.52
2022-11-26T05:23:16.804Z,33.50
2022-11-26T05:25:43.634Z,29.95
2022-11-26T05:28:10.537Z,28.63
2022-11-26T05:30:37.712Z,35.88
2022-11-26T05:33:04.495Z,38.60
2022-11-26T05:35:31.196Z,24.83
2022-11-26T05:37:58.016Z,28.70
2022-11-26T05:40:24.774Z,23.75
2022-11-26T05:42:51.463Z,29.40
2022-11-26T05:45:18.402Z,35.42
2022-11-26T05:47:45.157Z,30.05
2022-11-26T05:50:12.556Z,30.63
2022-11-26T05:52:39.243Z,34.33
2022-11-26T05:55:06.591Z,36.38
2022-11-26T05:57:33.299Z,33.22
2022-11-26T06:00:00.061Z,35.92
2022-11-26T06:02:27.015Z,37.33
2022-11-26T06:04:53.935Z,33.30
2022-11-26T06:07:20.655Z,32.13
2022-11-26T06:09:47.362Z,33.63
2022-11-26T06:12:14.107Z,32.47
2022-11-26T06:14:43.343Z,42.42
2022-11-26T06:17:10.977Z,32.17
2022-11-26T06:19:37.934Z,32.60
2022-11-26T06:22:04.732Z,33.97
2022-11-26T06:24:31.612Z,42.80
2022-11-26T06:26:58.286Z,35.70
2022-11-26T06:29:28.079Z,37.38
2022-11-26T06:31:55.346Z,37.17
2022-11-26T06:34:22.248Z,40.60
2022-11-26T06:36:48.997Z,40.83
2022-11-26T06:39:15.714Z,39.00
2022-11-26T06:41:42.459Z,38.63
2022-11-26T06:44:09.411Z,35.97
2022-11-26T06:46:36.435Z,31.23
2022-11-26T06:49:06.996Z,35.78
2022-11-26T06:51:34.429Z,38.72
2022-11-26T06:54:01.209Z,32.55
2022-11-26T06:56:28.075Z,31.88
2022-11-26T06:58:57.686Z,35.30
2022-11-26T07:01:26.972Z,33.95
2022-11-26T07:03:54.832Z,30.23
2022-11-26T07:06:27.503Z,36.63
2022-11-26T07:08:56.568Z,29.95
2022-11-26T07:11:24.975Z,36.25
2022-11-26T07:13:52.417Z,31.48
2022-11-26T07:16:19.320Z,35.38
2022-11-26T07:19:00.912Z,33.53
2022-11-26T07:21:29.548Z,32.05
2022-11-26T07:23:56.404Z,27.90
2022-11-26T07:26:24.256Z,37.55
2022-11-26T07:28:51.169Z,32.47
2022-11-26T07:31:20.886Z,33.47
2022-11-26T07:33:48.027Z,29.95
2022-11-26T07:36:24.051Z,24.23
2022-11-26T07:38:53.149Z,34.17
2022-11-26T07:41:20.349Z,25.67
2022-11-26T07:43:47.582Z,28.80
2022-11-26T07:46:17.107Z,28.55
2022-11-26T07:48:44.651Z,26.00
2022-11-26T07:51:29.443Z,27.48
2022-11-26T07:53:57.650Z,30.75
2022-11-26T07:56:24.514Z,28.92
2022-11-26T07:58:51.576Z,24.85
2022-11-26T08:01:20.776Z,26.73
2022-11-26T08:03:48.926Z,36.83
2022-11-26T08:06:19.531Z,21.70
2022-11-26T08:08:46.341Z,33.38
2022-11-26T08:11:16.116Z,23.70
2022-11-26T08:13:43.746Z,33.33
2022-11-26T08:16:11.248Z,26.20
2022-11-26T08:18:37.983Z,20.98
2022-11-26T08:21:05.484Z,24.05
2022-11-26T08:23:32.701Z,33.45
2022-11-26T08:26:22.783Z,22.27
2022-11-26T08:28:51.109Z,23.00
2022-11-26T08:31:18.574Z,31.05
2022-11-26T08:33:46.489Z,25.08
2022-11-26T08:36:13.530Z,23.25
2022-11-26T08:38:40.322Z,25.70
2022-11-26T08:41:10.660Z,25.10
2022-11-26T08:44:05.682Z,24.65
2022-11-26T08:46:26.047Z,22.50
2022-11-26T08:48:55.845Z,24.38
2022-11-26T08:51:23.063Z,26.52
2022-11-26T08:53:49.846Z,26.52
2022-11-26T08:56:16.785Z,19.48
2022-11-26T08:58:48.787Z,23.25
2022-11-26T09:01:24.863Z,26.67
2022-11-26T09:03:53.179Z,22.40
2022-11-26T09:06:30.734Z,21.95
2022-11-26T09:09:14.271Z,26.42
2022-11-26T09:11:58.074Z,21.17
2022-11-26T09:14:28.139Z,21.42
2022-11-26T09:16:56.248Z,18.83
2022-11-26T09:19:24.223Z,27.42
2022-11-26T09:21:51.068Z,18.20
2022-11-26T09:24:17.930Z,24.77
2022-11-26T09:26:45.338Z,19.40
2022-11-26T09:29:18.283Z,19.27
2022-11-26T09:32:07.889Z,18.67
2022-11-26T09:34:32.964Z,16.98
2022-11-26T09:36:59.703Z,19.92
2022-11-26T09:39:26.814Z,20.08
2022-11-26T09:42:13.892Z,23.63
2022-11-26T09:44:56.626Z,13.48
2022-11-26T09:47:28.662Z,13.50
2022-11-26T09:50:20.814Z,17.05
2022-11-26T09:52:55.988Z,17.40
2022-11-26T09:55:32.041Z,16.25
2022-11-26T09:58:21.004Z,22.73
2022-11-26T10:00:53.029Z,15.55
2022-11-26T10:03:22.918Z,14.00
2022-11-26T10:06:01.655Z,15.55
2022-11-26T10:08:50.257Z,17.58
2022-11-26T10:11:16.912Z,16.23
2022-11-26T10:14:21.046Z,13.20
2022-11-26T10:17:12.712Z,13.10
2022-11-26T10:20:00.775Z,13.93
2022-11-26T10:22:35.803Z,16.70
2022-11-26T10:25:04.145Z,10.98
2022-11-26T10:27:34.378Z,13.00
2022-11-26T10:30:16.359Z,15.35
2022-11-26T10:32:45.379Z,15.88
2022-11-26T10:35:21.489Z,10.90
2022-11-26T10:37:48.699Z,10.90
2022-11-26T10:40:24.094Z,11.82
2022-11-26T10:43:08.457Z,14.63
2022-11-26T10:45:45.765Z,17.20
2022-11-26T10:48:17.014Z,12.80
2022-11-26T10:50:55.535Z,13.65
2022-11-26T10:53:24.291Z,15.52
2022-11-26T10:55:53.785Z,12.02
2022-11-26T10:58:25.463Z,24.80
2022-11-26T11:00:52.195Z,17.70
2022-11-26T11:04:06.665Z,12.52
2022-11-26T11:06:18.831Z,11.57
2022-11-26T11:08:47.387Z,14.45
2022-11-26T11:11:22.137Z,12.88
2022-11-26T11:13:49.528Z,16.00
2022-11-26T11:16:25.597Z,13.88
2022-11-26T11:19:04.534Z,9.95
2022-11-26T11:21:37.428Z,14.35
2022-11-26T11:24:28.641Z,13.90
2022-11-26T11:29:25.205Z,12.43
2022-11-26T11:31:51.993Z,14.73
2022-11-26T11:34:33.339Z,12.23
2022-11-26T11:37:14.750Z,16.65
2022-11-26T11:39:43.049Z,11.75
2022-11-26T11:42:23.932Z,18.23
2022-11-26T11:47:36.153Z,9.65
2022-11-26T11:50:20.750Z,11.20
2022-11-26T11:52:59.601Z,11.10
2022-11-26T11:56:08.108Z,15.57
2022-11-26T11:59:18.136Z,15.82
2022-11-26T12:01:53.776Z,14.00
2022-11-26T12:04:25.773Z,12.23
2022-11-26T12:07:10.611Z,16.73
2022-11-26T12:09:49.859Z,14.05
2022-11-26T12:12:36.585Z,12.05
2022-11-26T12:15:21.667Z,14.05
2022-11-26T12:18:12.163Z,17.05
2022-11-26T12:20:44.222Z,12.68
2022-11-26T12:23:24.797Z,12.05
2022-11-26T12:26:16.274Z,20.77
2022-11-26T12:29:18.371Z,11.20
2022-11-26T12:32:03.227Z,13.98
2022-11-26T12:34:57.875Z,12.23
2022-11-26T12:37:27.567Z,11.85
2022-11-26T12:40:06.992Z,14.98
2022-11-26T12:42:57.341Z,12.65
2022-11-26T12:45:49.364Z,13.45
2022-11-26T12:48:35.299Z,12.07
2022-11-26T12:51:40.599Z,14.43
2022-11-26T12:54:16.742Z,13.00
2022-11-26T12:57:22.707Z,13.98
2022-11-26T12:59:58.773Z,12.98
2022-11-26T13:02:33.050Z,14.07
2022-11-26T13:05:00.171Z,14.52
2022-11-26T13:07:36.170Z,11.40
2022-11-26T13:10:21.854Z,13.02
2022-11-26T13:12:59.165Z,14.20
2022-11-26T13:15:41.448Z,10.35
2022-11-26T13:18:22.866Z,13.93
2022-11-26T13:21:13.817Z,17.98
2022-11-26T13:26:59.105Z,16.77
2022-11-26T13:29:59.291Z,18.77
2022-11-26T13:32:26.939Z,20.15
2022-11-26T13:35:18.159Z,17.02
2022-11-26T13:38:03.012Z,13.95
2022-11-26T13:40:44.914Z,26.00
2022-11-26T13:43:15.187Z,16.27
2022-11-26T13:46:03.261Z,16.15
2022-11-26T13:48:40.319Z,14.48
2022-11-26T13:51:12.359Z,13.88
2022-11-26T13:53:49.426Z,15.13
2022-11-26T13:56:22.416Z,14.60
2022-11-26T13:59:13.451Z,13.32
2022-11-26T14:01:41.428Z,15.13
2022-11-26T14:04:13.621Z,13.60
2022-11-26T14:07:15.903Z,16.95
2022-11-26T14:09:42.879Z,11.57
2022-11-26T14:12:11.055Z,25.58
2022-11-26T14:14:39.725Z,15.32
2022-11-26T14:17:23.777Z,14.15
2022-11-26T14:19:56.869Z,10.95
2022-11-26T14:22:23.531Z,9.35
2022-11-26T14:24:50.536Z,13.98
2022-11-26T14:27:19.907Z,13.63
2022-11-26T14:29:52.796Z,14.55
2022-11-26T14:32:23.252Z,12.40
2022-11-26T14:34:51.842Z,13.98
2022-11-26T14:37:24.821Z,11.93
2022-11-26T14:40:26.947Z,16.48
2022-11-26T14:43:06.561Z,13.70
2022-11-26T14:45:34.023Z,11.77
2022-11-26T14:48:03.205Z,15.60
2022-11-26T14:50:32.750Z,13.68
2022-11-26T14:53:04.733Z,11.52
2022-11-26T14:55:32.860Z,9.60
2022-11-26T14:58:07.610Z,13.57
2022-11-26T15:00:36.051Z,15.23
2022-11-26T15:03:04.118Z,8.95
2022-11-26T15:05:33.964Z,11.60
2022-11-26T15:08:00.871Z,18.02
2022-11-26T15:10:33.240Z,12.07
2022-11-26T15:13:06.548Z,14.73
2022-11-26T15:15:33.296Z,11.35
2022-11-26T15:18:07.716Z,11.27
2022-11-26T15:20:37.609Z,12.80
2022-11-26T15:23:06.692Z,13.43
2022-11-26T15:25:37.176Z,14.93
2022-11-26T15:28:20.497Z,14.48
2022-11-26T15:31:01.638Z,13.85
2022-11-26T15:33:31.835Z,10.90
2022-11-26T15:35:59.153Z,12.98
2022-11-26T15:38:31.145Z,17.08
2022-11-26T15:41:18.401Z,11.65
2022-11-26T15:43:52.279Z,14.23
2022-11-26T15:46:25.637Z,16.13
2022-11-26T15:48:58.984Z,13.80
2022-11-26T15:51:36.153Z,20.00
2022-11-26T15:54:06.551Z,12.75
2022-11-26T15:56:37.271Z,15.50
2022-11-26T15:59:13.886Z,9.35
2022-11-26T16:01:45.272Z,10.98
2022-11-26T16:04:54.008Z,9.43
2022-11-26T16:07:27.151Z,10.80
2022-11-26T16:10:15.960Z,16.80
2022-11-26T16:12:44.927Z,12.48
2022-11-26T16:15:21.938Z,11.82
2022-11-26T16:17:49.963Z,13.90
2022-11-26T16:20:20.057Z,12.18
2022-11-26T16:22:49.367Z,11.43
2022-11-26T16:25:37.284Z,11.80
2022-11-26T16:28:12.897Z,9.95
2022-11-26T16:30:42.230Z,10.20
2022-11-26T16:33:08.995Z,11.55
2022-11-26T16:35:45.616Z,11.50
2022-11-26T16:38:21.334Z,14.13
2022-11-26T16:40:48.538Z,8.57
2022-11-26T16:43:15.363Z,7.85
2022-11-26T16:45:42.580Z,11.75
2022-11-26T16:48:25.332Z,12.15
2022-11-26T16:50:56.463Z,8.82
2022-11-26T16:53:23.444Z,7.13
2022-11-26T16:55:51.850Z,8.32
2022-11-26T16:58:34.594Z,8.18
2022-11-26T17:01:01.875Z,13.90
2022-11-26T17:03:32.948Z,13.80
2022-11-26T17:06:11.011Z,10.18
2022-11-26T17:08:37.728Z,16.42
2022-11-26T17:11:04.483Z,11.57
2022-11-26T17:13:31.268Z,10.70
2022-11-26T17:15:58.388Z,11.57
2022-11-26T17:18:26.182Z,9.43
2022-11-26T17:20:54.097Z,11.38
2022-11-26T17:23:21.234Z,10.00
2022-11-26T17:25:53.271Z,9.48
2022-11-26T17:28:21.282Z,12.25
2022-11-26T17:30:48.102Z,8.65
2022-11-26T17:33:14.994Z,11.93
2022-11-26T17:35:41.885Z,11.82
2022-11-26T17:38:20.727Z,14.85
2022-11-26T17:40:48.528Z,8.23
2022-11-26T17:43:15.517Z,9.68
2022-11-26T17:45:42.344Z,12.48
2022-11-26T17:48:13.905Z,11.48
2022-11-26T17:50:41.441Z,8.63
2022-11-26T17:53:08.186Z,9.55
2022-11-26T17:55:35.019Z,7.88
2022-11-26T17:58:01.852Z,13.30
2022-11-26T18:00:29.485Z,15.07
2022-11-26T18:02:57.124Z,10.10
2022-11-26T18:05:24.360Z,9.75
2022-11-26T18:07:51.458Z,9.57
2022-11-26T18:10:20.018Z,9.57
2022-11-26T18:12:47.154Z,14.25
2022-11-26T18:15:19.190Z,11.15
2022-11-26T18:17:51.555Z,12.18
2022-11-26T18:20:21.602Z,7.95
2022-11-26T18:22:53.503Z,12.93
2022-11-26T18:25:20.884Z,14.85
2022-11-26T18:27:47.681Z,13.68
2022-11-26T18:30:15.244Z,20.52
2022-11-26T18:32:42.071Z,12.18
2022-11-26T18:35:09.671Z,8.95
2022-11-26T18:37:38.712Z,11.52
2022-11-26T18:40:09.240Z,11.65
2022-11-26T18:42:37.882Z,11.23
2022-11-26T18:45:07.977Z,12.20
2022-11-26T18:47:34.717Z,8.73
2022-11-26T18:50:01.509Z,11.98
2022-11-26T18:52:28.263Z,10.25
2022-11-26T18:54:55.101Z,10.60
2022-11-26T18:57:21.805Z,11.45
2022-11-26T18:59:50.412Z,11.82
2022-11-26T19:02:17.448Z,10.25
2022-11-26T19:04:44.198Z,11.45
2022-11-26T19:07:12.611Z,11.02
2022-11-26T19:09:40.027Z,13.40
2022-11-26T19:12:07.112Z,9.35
2022-11-26T19:14:34.245Z,16.83
2022-11-26T19:17:01.318Z,11.32
2022-11-26T19:19:28.259Z,10.10
2022-11-26T19:22:01.096Z,10.50
2022-11-26T19:24:29.682Z,16.33
2022-11-26T19:26:57.053Z,14.73
2022-11-26T19:29:23.961Z,10.25
2022-11-26T19:31:50.705Z,11.02
2022-11-26T19:34:19.571Z,9.15
2022-11-26T19:36:48.509Z,12.23
2022-11-26T19:39:16.381Z,9.60
2022-11-26T19:41:43.424Z,11.32
2022-11-26T19:44:10.219Z,8.75
2022-11-26T19:46:40.826Z,11.18
2022-11-26T19:49:11.720Z,8.63
2022-11-26T19:51:38.763Z,12.73
2022-11-26T19:54:05.835Z,12.43
2022-11-26T19:56:33.134Z,11.90
2022-11-26T19:59:02.054Z,12.77
2022-11-26T20:01:31.432Z,10.50
2022-11-26T20:04:00.050Z,7.57
2022-11-26T20:06:28.663Z,8.73
2022-11-26T20:08:57.998Z,18.98
2022-11-26T20:11:25.293Z,7.88
2022-11-26T20:13:52.303Z,11.07
2022-11-26T20:16:22.336Z,9.90
2022-11-26T20:18:50.218Z,8.97
2022-11-26T20:21:20.383Z,8.65
2022-11-26T20:23:48.776Z,9.77
2022-11-26T20:26:22.025Z,9.95
2022-11-26T20:28:49.696Z,14.38
2022-11-26T20:31:23.149Z,9.02
2022-11-26T20:33:54.185Z,10.15
2022-11-26T20:36:23.117Z,13.52
2022-11-26T20:38:55.041Z,9.90
2022-11-26T20:41:22.627Z,11.65
2022-11-26T20:43:56.547Z,11.73
2022-11-26T20:46:25.521Z,12.63
2022-11-26T20:48:53.029Z,12.45
2022-11-26T20:51:21.958Z,11.07
2022-11-26T20:53:52.260Z,13.48
2022-11-26T20:56:21.292Z,13.93
2022-11-26T20:58:48.833Z,12.55
2022-11-26T21:01:18.223Z,9.18
2022-11-26T21:03:45.430Z,16.60
2022-11-26T21:06:16.649Z,10.60
2022-11-26T21:08:43.754Z,11.85
2022-11-26T21:11:15.367Z,10.13
2022-11-26T21:13:43.043Z,13.98
2022-11-26T21:16:13.634Z,12.93
2022-11-26T21:18:40.416Z,16.02
2022-11-26T21:21:09.288Z,11.75
2022-11-26T21:23:38.968Z,10.70
2022-11-26T21:26:10.317Z,9.55
2022-11-26T21:28:37.226Z,7.97
2022-11-26T21:31:14.283Z,10.95
2022-11-26T21:33:41.113Z,12.20
2022-11-26T21:36:10.456Z,7.60
2022-11-26T21:38:37.363Z,8.85
2022-11-26T21:41:12.643Z,11.70
2022-11-26T21:43:40.343Z,9.25
2022-11-26T21:46:09.872Z,13.95
2022-11-26T21:48:36.884Z,9.15
2022-11-26T21:51:13.475Z,11.27
2022-11-26T21:53:40.598Z,9.07
2022-11-26T21:56:15.012Z,8.38
2022-11-26T21:58:42.303Z,8.18
2022-11-26T22:01:12.097Z,8.32
2022-11-26T22:03:41.136Z,11.57
2022-11-26T22:06:08.609Z,15.63
2022-11-26T22:08:35.819Z,11.68
2022-11-26T22:11:15.037Z,10.35
2022-11-26T22:13:42.134Z,15.07
2022-11-26T22:16:10.730Z,9.75
2022-11-26T22:18:39.299Z,11.20
2022-11-26T22:21:21.551Z,11.40
2022-11-26T22:23:51.528Z,10.95
2022-11-26T22:26:19.386Z,10.13
2022-11-26T22:28:47.245Z,9.82
2022-11-26T22:31:21.825Z,12.05
2022-11-26T22:33:49.923Z,8.70
2022-11-26T22:36:16.653Z,10.73
2022-11-26T22:38:43.501Z,13.30
2022-11-26T22:41:13.323Z,16.80
2022-11-26T22:43:40.892Z,12.00
2022-11-26T22:46:16.300Z,12.82
2022-11-26T22:48:43.694Z,8.80
2022-11-26T22:51:10.763Z,12.40
2022-11-26T22:53:37.800Z,9.07
2022-11-26T22:56:05.745Z,13.65
2022-11-26T22:58:34.170Z,11.52
2022-11-26T23:01:04.935Z,10.88
2022-11-26T23:03:33.509Z,10.13
2022-11-26T23:06:09.051Z,7.63
2022-11-26T23:08:37.468Z,11.27
2022-11-26T23:11:15.163Z,8.13
2022-11-26T23:13:43.140Z,7.07
2022-11-26T23:16:10.567Z,9.95
2022-11-26T23:18:38.547Z,11.18
2022-11-26T23:21:08.105Z,9.25
2022-11-26T23:23:36.468Z,12.38
2022-11-26T23:26:05.317Z,8.38
2022-11-26T23:28:33.186Z,7.78
2022-11-26T23:31:01.717Z,8.20
2022-11-26T23:33:28.928Z,9.18
2022-11-26T23:35:56.834Z,13.50
2022-11-26T23:38:24.274Z,12.82
2022-11-26T23:40:55.672Z,10.85
2022-11-26T23:43:23.651Z,9.23
2022-11-26T23:45:50.672Z,10.73
2022-11-26T23:48:17.540Z,12.52
2022-11-26T23:50:44.304Z,13.88
2022-11-26T23:53:11.064Z,11.50
2022-11-26T23:55:37.796Z,12.27
2022-11-26T23:58:04.480Z,10.57
